sensor_id;sensor_type;location;lat;lon;timestamp;temperature;humidity
1413;DHT22;701;52.526;13.408;2023-10-13T00:00:26;15.50;34.40
1413;DHT22;701;52.526;13.408;2023-10-13T00:02:56;15.40;34.30
1413;DHT22;701;52.526;13.408;2023-10-13T00:05:29;15.50;34.50
1413;DHT22;701;52.526;13.408;2023-10-13T00:08:02;15.40;34.30
1413;DHT22;701;52.526;13.408;2023-10-13T00:10:29;15.40;34.40
1413;DHT22;701;52.526;13.408;2023-10-13T00:12:55;15.40;34.40
1413;DHT22;701;52.526;13.408;2023-10-13T00:15:32;15.40;34.50
1413;DHT22;701;52.526;13.408;2023-10-13T00:18:05;15.40;34.70
1413;DHT22;701;52.526;13.408;2023-10-13T00:20:39;15.30;34.80
1413;DHT22;701;52.526;13.408;2023-10-13T00:23:05;15.30;34.90
1413;DHT22;701;52.526;13.408;2023-10-13T00:25:32;15.30;34.80
1413;DHT22;701;52.526;13.408;2023-10-13T00:28:09;15.30;34.80
1413;DHT22;701;52.526;13.408;2023-10-13T00:30:35;15.30;35.10
1413;DHT22;701;52.526;13.408;2023-10-13T00:33:02;15.20;35.20
1413;DHT22;701;52.526;13.408;2023-10-13T00:35:30;15.20;35.50
1413;DHT22;701;52.526;13.408;2023-10-13T00:38:05;15.20;35.70
1413;DHT22;701;52.526;13.408;2023-10-13T00:40:45;15.20;35.70
1413;DHT22;701;52.526;13.408;2023-10-13T00:43:18;15.20;35.80
1413;DHT22;701;52.526;13.408;2023-10-13T00:45:51;15.20;35.80
1413;DHT22;701;52.526;13.408;2023-10-13T00:48:25;15.20;35.70
1413;DHT22;701;52.526;13.408;2023-10-13T00:51:04;15.30;35.70
1413;DHT22;701;52.526;13.408;2023-10-13T00:53:36;15.30;35.70
1413;DHT22;701;52.526;13.408;2023-10-13T00:56:08;15.30;35.40
1413;DHT22;701;52.526;13.408;2023-10-13T00:58:47;15.30;35.60
1413;DHT22;701;52.526;13.408;2023-10-13T01:01:16;15.30;35.30
1413;DHT22;701;52.526;13.408;2023-10-13T01:06:21;15.20;35.50
1413;DHT22;701;52.526;13.408;2023-10-13T01:11:41;15.20;35.80
1413;DHT22;701;52.526;13.408;2023-10-13T01:14:13;15.20;35.70
1413;DHT22;701;52.526;13.408;2023-10-13T01:16:43;15.20;35.70
1413;DHT22;701;52.526;13.408;2023-10-13T01:19:19;15.20;35.70
1413;DHT22;701;52.526;13.408;2023-10-13T01:21:51;15.20;35.70
1413;DHT22;701;52.526;13.408;2023-10-13T01:24:23;15.20;35.70
1413;DHT22;701;52.526;13.408;2023-10-13T01:26:50;15.20;35.80
1413;DHT22;701;52.526;13.408;2023-10-13T01:29:18;15.20;36.20
1413;DHT22;701;52.526;13.408;2023-10-13T01:31:46;15.20;35.90
1413;DHT22;701;52.526;13.408;2023-10-13T01:34:17;15.20;36.20
1413;DHT22;701;52.526;13.408;2023-10-13T01:36:51;15.20;36.20
1413;DHT22;701;52.526;13.408;2023-10-13T01:39:23;15.30;36.20
1413;DHT22;701;52.526;13.408;2023-10-13T01:41:53;15.30;36.10
1413;DHT22;701;52.526;13.408;2023-10-13T01:44:24;15.30;36.00
1413;DHT22;701;52.526;13.408;2023-10-13T01:46:56;15.30;36.20
1413;DHT22;701;52.526;13.408;2023-10-13T01:49:25;15.30;36.30
1413;DHT22;701;52.526;13.408;2023-10-13T01:51:51;15.30;36.40
1413;DHT22;701;52.526;13.408;2023-10-13T01:54:17;15.30;36.70
1413;DHT22;701;52.526;13.408;2023-10-13T01:56:44;15.30;37.10
1413;DHT22;701;52.526;13.408;2023-10-13T01:59:11;15.30;37.70
1413;DHT22;701;52.526;13.408;2023-10-13T02:01:38;15.30;37.70
1413;DHT22;701;52.526;13.408;2023-10-13T02:04:04;15.30;37.40
1413;DHT22;701;52.526;13.408;2023-10-13T02:06:31;15.20;37.40
1413;DHT22;701;52.526;13.408;2023-10-13T02:09:01;15.20;38.30
1413;DHT22;701;52.526;13.408;2023-10-13T02:11:45;15.20;38.10
1413;DHT22;701;52.526;13.408;2023-10-13T02:14:12;15.20;38.20
1413;DHT22;701;52.526;13.408;2023-10-13T02:16:39;15.30;38.30
1413;DHT22;701;52.526;13.408;2023-10-13T02:19:05;15.30;38.20
1413;DHT22;701;52.526;13.408;2023-10-13T02:21:35;15.30;38.20
1413;DHT22;701;52.526;13.408;2023-10-13T02:24:09;15.30;38.40
1413;DHT22;701;52.526;13.408;2023-10-13T02:26:40;15.20;38.80
1413;DHT22;701;52.526;13.408;2023-10-13T02:29:06;15.20;39.00
1413;DHT22;701;52.526;13.408;2023-10-13T02:31:37;15.20;39.20
1413;DHT22;701;52.526;13.408;2023-10-13T02:34:04;15.10;39.90
1413;DHT22;701;52.526;13.408;2023-10-13T02:36:37;15.10;39.90
1413;DHT22;701;52.526;13.408;2023-10-13T02:39:13;15.20;40.20
1413;DHT22;701;52.526;13.408;2023-10-13T02:41:39;15.20;40.20
1413;DHT22;701;52.526;13.408;2023-10-13T02:44:07;15.10;40.10
1413;DHT22;701;52.526;13.408;2023-10-13T02:46:39;15.20;40.20
1413;DHT22;701;52.526;13.408;2023-10-13T02:49:05;15.20;40.20
1413;DHT22;701;52.526;13.408;2023-10-13T02:51:38;15.20;40.20
1413;DHT22;701;52.526;13.408;2023-10-13T02:54:08;15.20;40.20
1413;DHT22;701;52.526;13.408;2023-10-13T02:56:46;15.20;40.20
1413;DHT22;701;52.526;13.408;2023-10-13T02:59:28;15.20;40.20
1413;DHT22;701;52.526;13.408;2023-10-13T03:02:04;15.20;40.20
1413;DHT22;701;52.526;13.408;2023-10-13T03:04:52;15.30;40.30
1413;DHT22;701;52.526;13.408;2023-10-13T03:07:26;15.20;40.40
1413;DHT22;701;52.526;13.408;2023-10-13T03:09:55;15.20;40.60
1413;DHT22;701;52.526;13.408;2023-10-13T03:12:25;15.30;40.60
1413;DHT22;701;52.526;13.408;2023-10-13T03:14:53;15.30;40.80
1413;DHT22;701;52.526;13.408;2023-10-13T03:17:22;15.30;40.80
1413;DHT22;701;52.526;13.408;2023-10-13T03:20:00;15.30;40.80
1413;DHT22;701;52.526;13.408;2023-10-13T03:22:26;15.30;40.90
1413;DHT22;701;52.526;13.408;2023-10-13T03:24:59;15.30;40.90
1413;DHT22;701;52.526;13.408;2023-10-13T03:27:32;15.30;41.10
1413;DHT22;701;52.526;13.408;2023-10-13T03:30:17;15.30;41.00
1413;DHT22;701;52.526;13.408;2023-10-13T03:32:43;15.30;41.30
1413;DHT22;701;52.526;13.408;2023-10-13T03:35:12;15.30;41.20
1413;DHT22;701;52.526;13.408;2023-10-13T03:37:53;15.30;41.50
1413;DHT22;701;52.526;13.408;2023-10-13T03:40:20;15.30;41.50
1413;DHT22;701;52.526;13.408;2023-10-13T03:45:35;15.40;41.30
1413;DHT22;701;52.526;13.408;2023-10-13T03:48:14;15.40;41.50
1413;DHT22;701;52.526;13.408;2023-10-13T03:51:02;15.40;42.50
1413;DHT22;701;52.526;13.408;2023-10-13T03:53:41;15.40;42.00
1413;DHT22;701;52.526;13.408;2023-10-13T03:56:28;15.40;42.00
1413;DHT22;701;52.526;13.408;2023-10-13T03:59:05;15.40;42.60
1413;DHT22;701;52.526;13.408;2023-10-13T04:01:51;15.40;42.00
1413;DHT22;701;52.526;13.408;2023-10-13T04:04:18;15.40;42.10
1413;DHT22;701;52.526;13.408;2023-10-13T04:07:03;15.40;42.10
1413;DHT22;701;52.526;13.408;2023-10-13T04:09:39;15.40;42.10
1413;DHT22;701;52.526;13.408;2023-10-13T04:12:24;15.40;42.30
1413;DHT22;701;52.526;13.408;2023-10-13T04:15:09;15.50;42.40
1413;DHT22;701;52.526;13.408;2023-10-13T04:17:35;15.40;42.30
1413;DHT22;701;52.526;13.408;2023-10-13T04:20:06;15.50;42.50
1413;DHT22;701;52.526;13.408;2023-10-13T04:22:36;15.40;42.70
1413;DHT22;701;52.526;13.408;2023-10-13T04:25:18;15.50;42.70
1413;DHT22;701;52.526;13.408;2023-10-13T04:28:15;15.50;42.60
1413;DHT22;701;52.526;13.408;2023-10-13T04:31:00;15.50;42.70
1413;DHT22;701;52.526;13.408;2023-10-13T04:33:37;15.50;42.90
1413;DHT22;701;52.526;13.408;2023-10-13T04:36:18;15.50;42.80
1413;DHT22;701;52.526;13.408;2023-10-13T04:38:58;15.50;43.10
1413;DHT22;701;52.526;13.408;2023-10-13T04:44:11;15.60;43.00
1413;DHT22;701;52.526;13.408;2023-10-13T04:46:58;15.60;43.20
1413;DHT22;701;52.526;13.408;2023-10-13T04:49:28;15.60;43.40
1413;DHT22;701;52.526;13.408;2023-10-13T04:52:13;15.60;43.60
1413;DHT22;701;52.526;13.408;2023-10-13T04:54:52;15.60;43.60
1413;DHT22;701;52.526;13.408;2023-10-13T04:57:25;15.70;43.60
1413;DHT22;701;52.526;13.408;2023-10-13T05:00:12;15.70;43.60
1413;DHT22;701;52.526;13.408;2023-10-13T05:02:46;15.70;43.40
1413;DHT22;701;52.526;13.408;2023-10-13T05:05:27;15.70;43.50
1413;DHT22;701;52.526;13.408;2023-10-13T05:07:56;15.70;43.80
1413;DHT22;701;52.526;13.408;2023-10-13T05:10:40;15.70;44.20
1413;DHT22;701;52.526;13.408;2023-10-13T05:13:24;15.70;44.00
1413;DHT22;701;52.526;13.408;2023-10-13T05:16:09;15.70;44.10
1413;DHT22;701;52.526;13.408;2023-10-13T05:18:53;15.70;44.10
1413;DHT22;701;52.526;13.408;2023-10-13T05:21:38;15.70;44.00
1413;DHT22;701;52.526;13.408;2023-10-13T05:24:22;15.80;44.40
1413;DHT22;701;52.526;13.408;2023-10-13T05:27:07;15.80;44.50
1413;DHT22;701;52.526;13.408;2023-10-13T05:29:51;15.80;44.60
1413;DHT22;701;52.526;13.408;2023-10-13T05:32:36;15.80;44.30
1413;DHT22;701;52.526;13.408;2023-10-13T05:35:21;15.80;44.70
1413;DHT22;701;52.526;13.408;2023-10-13T05:38:06;15.80;45.00
1413;DHT22;701;52.526;13.408;2023-10-13T05:40:56;15.80;45.10
1413;DHT22;701;52.526;13.408;2023-10-13T05:43:41;15.80;45.10
1413;DHT22;701;52.526;13.408;2023-10-13T05:46:25;15.80;45.10
1413;DHT22;701;52.526;13.408;2023-10-13T05:48:52;15.90;45.10
1413;DHT22;701;52.526;13.408;2023-10-13T05:51:27;15.90;45.20
1413;DHT22;701;52.526;13.408;2023-10-13T05:54:10;15.90;45.20
1413;DHT22;701;52.526;13.408;2023-10-13T05:56:49;15.90;45.10
1413;DHT22;701;52.526;13.408;2023-10-13T05:59:36;15.80;45.10
1413;DHT22;701;52.526;13.408;2023-10-13T06:02:21;15.80;45.10
1413;DHT22;701;52.526;13.408;2023-10-13T06:05:08;15.90;45.70
1413;DHT22;701;52.526;13.408;2023-10-13T06:07:53;15.90;46.00
1413;DHT22;701;52.526;13.408;2023-10-13T06:10:38;16.00;46.10
1413;DHT22;701;52.526;13.408;2023-10-13T06:13:23;16.10;46.00
1413;DHT22;701;52.526;13.408;2023-10-13T06:16:24;16.20;45.40
1413;DHT22;701;52.526;13.408;2023-10-13T06:19:08;16.20;45.40
1413;DHT22;701;52.526;13.408;2023-10-13T06:21:52;16.30;45.00
1413;DHT22;701;52.526;13.408;2023-10-13T06:24:37;16.40;44.40
1413;DHT22;701;52.526;13.408;2023-10-13T06:27:21;16.50;44.00
1413;DHT22;701;52.526;13.408;2023-10-13T06:30:05;16.50;43.50
1413;DHT22;701;52.526;13.408;2023-10-13T06:32:32;16.60;43.10
1413;DHT22;701;52.526;13.408;2023-10-13T06:34:58;16.70;42.80
1413;DHT22;701;52.526;13.408;2023-10-13T06:37:30;16.70;42.30
1413;DHT22;701;52.526;13.408;2023-10-13T06:39:58;16.70;42.00
1413;DHT22;701;52.526;13.408;2023-10-13T06:42:40;16.70;41.80
1413;DHT22;701;52.526;13.408;2023-10-13T06:45:09;16.70;42.60
1413;DHT22;701;52.526;13.408;2023-10-13T06:47:35;16.70;42.40
1413;DHT22;701;52.526;13.408;2023-10-13T06:50:10;16.70;41.60
1413;DHT22;701;52.526;13.408;2023-10-13T06:52:44;16.70;41.50
1413;DHT22;701;52.526;13.408;2023-10-13T06:55:10;16.70;41.60
1413;DHT22;701;52.526;13.408;2023-10-13T06:57:44;16.60;41.80
1413;DHT22;701;52.526;13.408;2023-10-13T07:00:10;16.70;42.30
1413;DHT22;701;52.526;13.408;2023-10-13T07:02:48;16.70;42.10
1413;DHT22;701;52.526;13.408;2023-10-13T07:05:17;16.70;42.80
1413;DHT22;701;52.526;13.408;2023-10-13T07:07:43;16.90;43.10
1413;DHT22;701;52.526;13.408;2023-10-13T07:10:12;17.10;43.00
1413;DHT22;701;52.526;13.408;2023-10-13T07:12:38;17.30;42.40
1413;DHT22;701;52.526;13.408;2023-10-13T07:15:12;17.50;42.20
1413;DHT22;701;52.526;13.408;2023-10-13T07:17:47;17.80;41.30
1413;DHT22;701;52.526;13.408;2023-10-13T07:20:20;18.10;39.80
1413;DHT22;701;52.526;13.408;2023-10-13T07:22:59;18.30;38.40
1413;DHT22;701;52.526;13.408;2023-10-13T07:25:35;18.50;36.50
1413;DHT22;701;52.526;13.408;2023-10-13T07:28:05;18.70;35.50
1413;DHT22;701;52.526;13.408;2023-10-13T07:30:35;18.80;34.40
1413;DHT22;701;52.526;13.408;2023-10-13T07:33:16;18.90;34.40
1413;DHT22;701;52.526;13.408;2023-10-13T07:36:02;19.00;33.10
1413;DHT22;701;52.526;13.408;2023-10-13T07:38:37;19.10;32.30
1413;DHT22;701;52.526;13.408;2023-10-13T07:41:04;19.20;31.90
1413;DHT22;701;52.526;13.408;2023-10-13T07:43:35;19.30;31.20
1413;DHT22;701;52.526;13.408;2023-10-13T07:46:05;19.40;30.30
1413;DHT22;701;52.526;13.408;2023-10-13T07:48:38;19.60;30.00
1413;DHT22;701;52.526;13.408;2023-10-13T07:51:09;19.70;29.60
1413;DHT22;701;52.526;13.408;2023-10-13T07:53:48;19.70;28.60
1413;DHT22;701;52.526;13.408;2023-10-13T07:56:18;19.90;28.70
1413;DHT22;701;52.526;13.408;2023-10-13T07:58:45;19.90;28.10
1413;DHT22;701;52.526;13.408;2023-10-13T08:01:32;20.00;28.00
1413;DHT22;701;52.526;13.408;2023-10-13T08:03:59;20.00;27.40
1413;DHT22;701;52.526;13.408;2023-10-13T08:06:40;20.00;27.30
1413;DHT22;701;52.526;13.408;2023-10-13T08:09:07;20.00;27.20
1413;DHT22;701;52.526;13.408;2023-10-13T08:11:51;20.00;27.10
1413;DHT22;701;52.526;13.408;2023-10-13T08:14:20;20.00;27.20
1413;DHT22;701;52.526;13.408;2023-10-13T08:16:49;20.00;26.90
1413;DHT22;701;52.526;13.408;2023-10-13T08:19:27;20.00;26.60
1413;DHT22;701;52.526;13.408;2023-10-13T08:21:54;20.10;26.50
1413;DHT22;701;52.526;13.408;2023-10-13T08:24:25;20.10;26.10
1413;DHT22;701;52.526;13.408;2023-10-13T08:27:21;20.10;25.50
1413;DHT22;701;52.526;13.408;2023-10-13T08:30:05;20.30;25.50
1413;DHT22;701;52.526;13.408;2023-10-13T08:32:57;20.50;25.30
1413;DHT22;701;52.526;13.408;2023-10-13T08:35:25;20.60;24.70
1413;DHT22;701;52.526;13.408;2023-10-13T08:38:01;20.80;24.50
1413;DHT22;701;52.526;13.408;2023-10-13T08:40:30;20.80;24.10
1413;DHT22;701;52.526;13.408;2023-10-13T08:43:12;20.90;24.20
1413;DHT22;701;52.526;13.408;2023-10-13T08:45:42;20.90;23.40
1413;DHT22;701;52.526;13.408;2023-10-13T08:48:10;20.90;23.20
1413;DHT22;701;52.526;13.408;2023-10-13T08:50:45;20.80;23.20
1413;DHT22;701;52.526;13.408;2023-10-13T08:56:13;20.90;23.20
1413;DHT22;701;52.526;13.408;2023-10-13T08:58:46;20.90;22.90
1413;DHT22;701;52.526;13.408;2023-10-13T09:01:47;20.80;23.00
1413;DHT22;701;52.526;13.408;2023-10-13T09:04:26;20.80;22.90
1413;DHT22;701;52.526;13.408;2023-10-13T09:12:19;20.70;23.60
1413;DHT22;701;52.526;13.408;2023-10-13T09:14:54;20.70;23.80
1413;DHT22;701;52.526;13.408;2023-10-13T09:17:25;20.80;23.80
1413;DHT22;701;52.526;13.408;2023-10-13T09:20:02;20.80;23.50
1413;DHT22;701;52.526;13.408;2023-10-13T09:22:51;20.80;23.40
1413;DHT22;701;52.526;13.408;2023-10-13T09:25:37;20.80;23.30
1413;DHT22;701;52.526;13.408;2023-10-13T09:28:14;20.70;23.40
1413;DHT22;701;52.526;13.408;2023-10-13T09:33:13;20.70;23.60
1413;DHT22;701;52.526;13.408;2023-10-13T09:35:46;20.60;23.90
1413;DHT22;701;52.526;13.408;2023-10-13T09:38:16;20.60;23.90
1413;DHT22;701;52.526;13.408;2023-10-13T09:40:42;20.60;23.90
1413;DHT22;701;52.526;13.408;2023-10-13T09:43:27;20.60;24.30
1413;DHT22;701;52.526;13.408;2023-10-13T09:45:59;20.60;24.60
1413;DHT22;701;52.526;13.408;2023-10-13T09:48:34;20.60;24.50
1413;DHT22;701;52.526;13.408;2023-10-13T09:51:02;20.60;24.60
1413;DHT22;701;52.526;13.408;2023-10-13T09:53:33;20.50;25.30
1413;DHT22;701;52.526;13.408;2023-10-13T09:58:55;20.30;25.40
1413;DHT22;701;52.526;13.408;2023-10-13T10:01:27;20.20;25.60
1413;DHT22;701;52.526;13.408;2023-10-13T10:04:14;20.20;25.90
1413;DHT22;701;52.526;13.408;2023-10-13T10:06:57;20.10;26.40
1413;DHT22;701;52.526;13.408;2023-10-13T10:09:32;20.10;26.60
1413;DHT22;701;52.526;13.408;2023-10-13T10:15:23;20.10;27.30
1413;DHT22;701;52.526;13.408;2023-10-13T10:18:22;20.10;27.30
1413;DHT22;701;52.526;13.408;2023-10-13T10:20:51;20.20;27.20
1413;DHT22;701;52.526;13.408;2023-10-13T10:23:25;20.20;27.20
1413;DHT22;701;52.526;13.408;2023-10-13T10:25:54;20.20;27.30
1413;DHT22;701;52.526;13.408;2023-10-13T10:28:38;20.20;27.40
1413;DHT22;701;52.526;13.408;2023-10-13T10:31:08;20.20;27.30
1413;DHT22;701;52.526;13.408;2023-10-13T10:33:38;20.10;27.30
1413;DHT22;701;52.526;13.408;2023-10-13T10:36:04;20.20;27.40
1413;DHT22;701;52.526;13.408;2023-10-13T10:38:31;20.20;27.30
1413;DHT22;701;52.526;13.408;2023-10-13T10:41:05;20.20;27.40
1413;DHT22;701;52.526;13.408;2023-10-13T10:46:28;20.10;27.90
1413;DHT22;701;52.526;13.408;2023-10-13T10:48:57;20.20;28.40
1413;DHT22;701;52.526;13.408;2023-10-13T10:51:27;20.10;28.90
1413;DHT22;701;52.526;13.408;2023-10-13T10:53:57;20.00;29.10
1413;DHT22;701;52.526;13.408;2023-10-13T10:56:36;20.10;29.90
1413;DHT22;701;52.526;13.408;2023-10-13T10:59:06;20.00;30.00
1413;DHT22;701;52.526;13.408;2023-10-13T11:01:43;20.00;30.10
1413;DHT22;701;52.526;13.408;2023-10-13T11:04:18;20.00;30.80
1413;DHT22;701;52.526;13.408;2023-10-13T11:06:54;20.10;30.90
1413;DHT22;701;52.526;13.408;2023-10-13T11:09:31;20.10;30.90
1413;DHT22;701;52.526;13.408;2023-10-13T11:12:17;20.10;31.30
1413;DHT22;701;52.526;13.408;2023-10-13T11:15:06;20.20;31.10
1413;DHT22;701;52.526;13.408;2023-10-13T11:17:51;20.20;31.10
1413;DHT22;701;52.526;13.408;2023-10-13T11:20:20;20.30;31.10
1413;DHT22;701;52.526;13.408;2023-10-13T11:23:13;20.30;31.80
1413;DHT22;701;52.526;13.408;2023-10-13T11:25:39;20.50;31.30
1413;DHT22;701;52.526;13.408;2023-10-13T11:28:16;20.50;31.20
1413;DHT22;701;52.526;13.408;2023-10-13T11:30:55;20.60;30.90
1413;DHT22;701;52.526;13.408;2023-10-13T11:33:46;20.70;30.60
1413;DHT22;701;52.526;13.408;2023-10-13T11:36:12;20.70;30.30
1413;DHT22;701;52.526;13.408;2023-10-13T11:38:48;20.80;30.10
1413;DHT22;701;52.526;13.408;2023-10-13T11:41:14;20.80;29.80
1413;DHT22;701;52.526;13.408;2023-10-13T11:43:45;20.80;29.60
1413;DHT22;701;52.526;13.408;2023-10-13T11:46:23;20.80;29.50
1413;DHT22;701;52.526;13.408;2023-10-13T11:49:05;20.80;29.60
1413;DHT22;701;52.526;13.408;2023-10-13T11:54:22;20.70;30.20
1413;DHT22;701;52.526;13.408;2023-10-13T11:56:49;20.70;29.80
1413;DHT22;701;52.526;13.408;2023-10-13T11:59:15;20.80;29.80
1413;DHT22;701;52.526;13.408;2023-10-13T12:01:48;20.90;29.70
1413;DHT22;701;52.526;13.408;2023-10-13T12:04:33;20.80;29.40
1413;DHT22;701;52.526;13.408;2023-10-13T12:07:18;20.90;29.20
1413;DHT22;701;52.526;13.408;2023-10-13T12:09:49;20.90;28.80
1413;DHT22;701;52.526;13.408;2023-10-13T12:14:47;21.10;28.70
1413;DHT22;701;52.526;13.408;2023-10-13T12:17:24;21.20;28.10
1413;DHT22;701;52.526;13.408;2023-10-13T12:20:06;21.30;28.10
1413;DHT22;701;52.526;13.408;2023-10-13T12:22:39;21.30;27.90
1413;DHT22;701;52.526;13.408;2023-10-13T12:25:14;21.40;28.10
1413;DHT22;701;52.526;13.408;2023-10-13T12:28:00;21.40;27.50
1413;DHT22;701;52.526;13.408;2023-10-13T12:30:44;21.50;27.40
1413;DHT22;701;52.526;13.408;2023-10-13T12:33:22;21.60;26.60
1413;DHT22;701;52.526;13.408;2023-10-13T12:36:03;21.70;26.60
1413;DHT22;701;52.526;13.408;2023-10-13T12:38:37;21.80;26.30
1413;DHT22;701;52.526;13.408;2023-10-13T12:41:14;21.80;26.10
1413;DHT22;701;52.526;13.408;2023-10-13T12:44:00;21.90;25.80
1413;DHT22;701;52.526;13.408;2023-10-13T12:46:44;22.00;25.70
1413;DHT22;701;52.526;13.408;2023-10-13T12:49:28;22.10;25.00
1413;DHT22;701;52.526;13.408;2023-10-13T12:52:06;22.10;24.90
1413;DHT22;701;52.526;13.408;2023-10-13T12:55:01;22.20;25.00
1413;DHT22;701;52.526;13.408;2023-10-13T12:57:35;22.20;24.40
1413;DHT22;701;52.526;13.408;2023-10-13T13:00:10;22.30;24.30
1413;DHT22;701;52.526;13.408;2023-10-13T13:02:42;22.30;24.00
1413;DHT22;701;52.526;13.408;2023-10-13T13:05:08;22.40;23.90
1413;DHT22;701;52.526;13.408;2023-10-13T13:07:40;22.40;23.60
1413;DHT22;701;52.526;13.408;2023-10-13T13:10:13;22.40;23.40
1413;DHT22;701;52.526;13.408;2023-10-13T13:12:42;22.50;23.40
1413;DHT22;701;52.526;13.408;2023-10-13T13:15:08;22.60;22.90
1413;DHT22;701;52.526;13.408;2023-10-13T13:17:38;22.70;22.90
1413;DHT22;701;52.526;13.408;2023-10-13T13:20:08;22.70;22.50
1413;DHT22;701;52.526;13.408;2023-10-13T13:22:51;22.80;22.10
1413;DHT22;701;52.526;13.408;2023-10-13T13:25:19;22.80;21.90
1413;DHT22;701;52.526;13.408;2023-10-13T13:27:51;22.80;21.80
1413;DHT22;701;52.526;13.408;2023-10-13T13:30:16;22.80;21.70
1413;DHT22;701;52.526;13.408;2023-10-13T13:32:45;22.90;21.80
1413;DHT22;701;52.526;13.408;2023-10-13T13:35:12;23.00;21.50
1413;DHT22;701;52.526;13.408;2023-10-13T13:37:40;23.00;20.70
1413;DHT22;701;52.526;13.408;2023-10-13T13:40:08;23.10;20.40
1413;DHT22;701;52.526;13.408;2023-10-13T13:42:42;23.10;20.40
1413;DHT22;701;52.526;13.408;2023-10-13T13:45:17;23.20;20.30
1413;DHT22;701;52.526;13.408;2023-10-13T13:47:53;23.20;19.80
1413;DHT22;701;52.526;13.408;2023-10-13T13:50:21;23.30;19.70
1413;DHT22;701;52.526;13.408;2023-10-13T13:52:51;23.40;19.40
1413;DHT22;701;52.526;13.408;2023-10-13T13:55:19;23.40;19.20
1413;DHT22;701;52.526;13.408;2023-10-13T13:57:45;23.40;19.00
1413;DHT22;701;52.526;13.408;2023-10-13T14:00:12;23.50;18.50
1413;DHT22;701;52.526;13.408;2023-10-13T14:03:06;23.50;18.30
1413;DHT22;701;52.526;13.408;2023-10-13T14:05:43;23.50;18.30
1413;DHT22;701;52.526;13.408;2023-10-13T14:08:09;23.60;18.10
1413;DHT22;701;52.526;13.408;2023-10-13T14:10:40;23.60;17.80
1413;DHT22;701;52.526;13.408;2023-10-13T14:13:25;23.50;18.00
1413;DHT22;701;52.526;13.408;2023-10-13T14:16:09;23.60;18.00
1413;DHT22;701;52.526;13.408;2023-10-13T14:18:46;23.50;17.80
1413;DHT22;701;52.526;13.408;2023-10-13T14:21:12;23.60;17.50
1413;DHT22;701;52.526;13.408;2023-10-13T14:23:51;23.60;17.50
1413;DHT22;701;52.526;13.408;2023-10-13T14:26:20;23.50;17.20
1413;DHT22;701;52.526;13.408;2023-10-13T14:28:56;23.40;17.10
1413;DHT22;701;52.526;13.408;2023-10-13T14:31:33;23.40;17.20
1413;DHT22;701;52.526;13.408;2023-10-13T14:33:59;23.30;16.80
1413;DHT22;701;52.526;13.408;2023-10-13T14:36:25;23.30;17.10
1413;DHT22;701;52.526;13.408;2023-10-13T14:38:55;23.20;17.00
1413;DHT22;701;52.526;13.408;2023-10-13T14:41:21;23.20;16.60
1413;DHT22;701;52.526;13.408;2023-10-13T14:43:47;23.20;16.90
1413;DHT22;701;52.526;13.408;2023-10-13T14:46:17;23.10;16.90
1413;DHT22;701;52.526;13.408;2023-10-13T14:48:44;23.00;16.80
1413;DHT22;701;52.526;13.408;2023-10-13T14:51:13;23.10;17.00
1413;DHT22;701;52.526;13.408;2023-10-13T14:53:40;23.00;16.90
1413;DHT22;701;52.526;13.408;2023-10-13T14:56:12;22.90;16.90
1413;DHT22;701;52.526;13.408;2023-10-13T14:58:39;22.90;17.10
1413;DHT22;701;52.526;13.408;2023-10-13T15:01:15;22.80;17.30
1413;DHT22;701;52.526;13.408;2023-10-13T15:03:48;22.80;17.30
1413;DHT22;701;52.526;13.408;2023-10-13T15:06:19;22.70;17.30
1413;DHT22;701;52.526;13.408;2023-10-13T15:08:51;22.70;17.40
1413;DHT22;701;52.526;13.408;2023-10-13T15:11:19;22.70;17.40
1413;DHT22;701;52.526;13.408;2023-10-13T15:13:45;22.70;17.40
1413;DHT22;701;52.526;13.408;2023-10-13T15:16:19;22.70;17.40
1413;DHT22;701;52.526;13.408;2023-10-13T15:18:46;22.60;17.20
1413;DHT22;701;52.526;13.408;2023-10-13T15:21:21;22.60;16.90
1413;DHT22;701;52.526;13.408;2023-10-13T15:23:51;22.60;17.10
1413;DHT22;701;52.526;13.408;2023-10-13T15:26:18;22.50;16.90
1413;DHT22;701;52.526;13.408;2023-10-13T15:28:46;22.50;17.20
1413;DHT22;701;52.526;13.408;2023-10-13T15:31:16;22.50;17.30
1413;DHT22;701;52.526;13.408;2023-10-13T15:34:12;22.40;17.20
1413;DHT22;701;52.526;13.408;2023-10-13T15:36:43;22.40;17.00
1413;DHT22;701;52.526;13.408;2023-10-13T15:39:10;22.30;16.80
1413;DHT22;701;52.526;13.408;2023-10-13T15:41:37;22.30;17.00
1413;DHT22;701;52.526;13.408;2023-10-13T15:44:04;22.20;17.20
1413;DHT22;701;52.526;13.408;2023-10-13T15:46:35;22.20;17.40
1413;DHT22;701;52.526;13.408;2023-10-13T15:49:01;22.20;17.60
1413;DHT22;701;52.526;13.408;2023-10-13T15:51:28;22.10;17.50
1413;DHT22;701;52.526;13.408;2023-10-13T15:53:55;22.10;17.50
1413;DHT22;701;52.526;13.408;2023-10-13T15:56:21;22.10;17.60
1413;DHT22;701;52.526;13.408;2023-10-13T15:58:47;22.00;17.80
1413;DHT22;701;52.526;13.408;2023-10-13T16:01:13;21.90;18.00
1413;DHT22;701;52.526;13.408;2023-10-13T16:03:43;21.90;18.20
1413;DHT22;701;52.526;13.408;2023-10-13T16:06:13;21.90;18.30
1413;DHT22;701;52.526;13.408;2023-10-13T16:08:41;21.80;18.40
1413;DHT22;701;52.526;13.408;2023-10-13T16:11:14;21.80;18.50
1413;DHT22;701;52.526;13.408;2023-10-13T16:13:44;21.70;18.50
1413;DHT22;701;52.526;13.408;2023-10-13T16:16:16;21.70;18.70
1413;DHT22;701;52.526;13.408;2023-10-13T16:18:43;21.60;18.80
1413;DHT22;701;52.526;13.408;2023-10-13T16:21:10;21.60;18.80
1413;DHT22;701;52.526;13.408;2023-10-13T16:23:41;21.50;18.80
1413;DHT22;701;52.526;13.408;2023-10-13T16:26:08;21.50;18.90
1413;DHT22;701;52.526;13.408;2023-10-13T16:28:35;21.40;18.90
1413;DHT22;701;52.526;13.408;2023-10-13T16:31:02;21.40;19.00
1413;DHT22;701;52.526;13.408;2023-10-13T16:33:28;21.40;19.60
1413;DHT22;701;52.526;13.408;2023-10-13T16:35:55;21.30;19.40
1413;DHT22;701;52.526;13.408;2023-10-13T16:38:22;21.30;19.00
1413;DHT22;701;52.526;13.408;2023-10-13T16:40:51;21.20;18.90
1413;DHT22;701;52.526;13.408;2023-10-13T16:43:19;21.20;19.00
1413;DHT22;701;52.526;13.408;2023-10-13T16:45:44;21.10;19.00
1413;DHT22;701;52.526;13.408;2023-10-13T16:48:10;21.10;19.10
1413;DHT22;701;52.526;13.408;2023-10-13T16:50:45;21.00;19.20
1413;DHT22;701;52.526;13.408;2023-10-13T16:53:11;20.90;19.30
1413;DHT22;701;52.526;13.408;2023-10-13T16:55:37;20.80;19.50
1413;DHT22;701;52.526;13.408;2023-10-13T16:58:11;20.80;19.60
1413;DHT22;701;52.526;13.408;2023-10-13T17:00:40;20.80;19.60
1413;DHT22;701;52.526;13.408;2023-10-13T17:03:08;20.80;19.60
1413;DHT22;701;52.526;13.408;2023-10-13T17:05:45;20.80;19.50
1413;DHT22;701;52.526;13.408;2023-10-13T17:08:11;20.80;19.40
1413;DHT22;701;52.526;13.408;2023-10-13T17:10:39;20.80;19.20
1413;DHT22;701;52.526;13.408;2023-10-13T17:13:05;20.80;19.10
1413;DHT22;701;52.526;13.408;2023-10-13T17:15:35;20.80;18.90
1413;DHT22;701;52.526;13.408;2023-10-13T17:18:03;20.90;18.50
1413;DHT22;701;52.526;13.408;2023-10-13T17:23:01;20.90;18.30